sensor_id;sensor_type;location;lat;lon;timestamp;P1;durP1;ratioP1;P2;durP2;ratioP2
6928;SDS011;3504;52.616;13.238;2022-09-01T00:01:12;3.73;;;1.60;;
6928;SDS011;3504;52.616;13.238;2022-09-01T00:06:22;1.93;;;1.70;;
6928;SDS011;3504;52.616;13.238;2022-09-01T00:11:24;4.47;;;1.53;;
6928;SDS011;3504;52.616;13.238;2022-09-01T00:16:28;2.07;;;1.50;;
6928;SDS011;3504;52.616;13.238;2022-09-01T00:21:31;2.60;;;1.20;;
6928;SDS011;3504;52.616;13.238;2022-09-01T00:26:38;2.03;;;1.60;;
6928;SDS011;3504;52.616;13.238;2022-09-01T00:31:39;2.97;;;1.40;;
6928;SDS011;3504;52.616;13.238;2022-09-01T00:36:41;1.77;;;1.53;;
6928;SDS011;3504;52.616;13.238;2022-09-01T00:41:42;2.23;;;1.30;;
6928;SDS011;3504;52.616;13.238;2022-09-01T00:46:46;2.70;;;1.30;;
6928;SDS011;3504;52.616;13.238;2022-09-01T00:51:50;1.63;;;1.23;;
6928;SDS011;3504;52.616;13.238;2022-09-01T00:56:55;2.80;;;1.33;;
6928;SDS011;3504;52.616;13.238;2022-09-01T01:01:58;1.40;;;1.30;;
6928;SDS011;3504;52.616;13.238;2022-09-01T01:07:00;3.57;;;1.63;;
6928;SDS011;3504;52.616;13.238;2022-09-01T01:12:01;2.43;;;1.27;;
6928;SDS011;3504;52.616;13.238;2022-09-01T01:17:04;2.43;;;1.43;;
6928;SDS011;3504;52.616;13.238;2022-09-01T01:22:07;2.50;;;1.13;;
6928;SDS011;3504;52.616;13.238;2022-09-01T01:27:32;2.20;;;1.50;;
6928;SDS011;3504;52.616;13.238;2022-09-01T01:32:36;1.83;;;1.43;;
6928;SDS011;3504;52.616;13.238;2022-09-01T01:37:42;1.60;;;1.20;;
6928;SDS011;3504;52.616;13.238;2022-09-01T01:42:51;3.20;;;1.37;;
6928;SDS011;3504;52.616;13.238;2022-09-01T01:47:53;2.33;;;1.57;;
6928;SDS011;3504;52.616;13.238;2022-09-01T01:52:58;2.53;;;1.47;;
6928;SDS011;3504;52.616;13.238;2022-09-01T01:58:01;1.60;;;1.37;;
6928;SDS011;3504;52.616;13.238;2022-09-01T02:03:04;1.20;;;1.10;;
6928;SDS011;3504;52.616;13.238;2022-09-01T02:08:07;3.07;;;1.30;;
6928;SDS011;3504;52.616;13.238;2022-09-01T02:13:10;1.70;;;1.20;;
6928;SDS011;3504;52.616;13.238;2022-09-01T02:18:21;2.20;;;1.43;;
6928;SDS011;3504;52.616;13.238;2022-09-01T02:23:31;1.43;;;1.17;;
6928;SDS011;3504;52.616;13.238;2022-09-01T02:28:34;3.10;;;1.40;;
6928;SDS011;3504;52.616;13.238;2022-09-01T02:33:38;4.80;;;1.53;;
6928;SDS011;3504;52.616;13.238;2022-09-01T02:38:45;1.40;;;1.20;;
6928;SDS011;3504;52.616;13.238;2022-09-01T02:43:48;2.43;;;1.53;;
6928;SDS011;3504;52.616;13.238;2022-09-01T02:48:50;1.50;;;1.40;;
6928;SDS011;3504;52.616;13.238;2022-09-01T02:53:52;2.83;;;1.40;;
6928;SDS011;3504;52.616;13.238;2022-09-01T02:58:53;1.63;;;1.53;;
6928;SDS011;3504;52.616;13.238;2022-09-01T03:03:57;1.63;;;1.33;;
6928;SDS011;3504;52.616;13.238;2022-09-01T03:09:01;1.33;;;1.20;;
6928;SDS011;3504;52.616;13.238;2022-09-01T03:14:08;2.13;;;1.63;;
6928;SDS011;3504;52.616;13.238;2022-09-01T03:19:09;2.13;;;1.50;;
6928;SDS011;3504;52.616;13.238;2022-09-01T03:24:12;2.63;;;1.40;;
6928;SDS011;3504;52.616;13.238;2022-09-01T03:29:16;2.83;;;1.40;;
6928;SDS011;3504;52.616;13.238;2022-09-01T03:34:18;1.83;;;1.30;;
6928;SDS011;3504;52.616;13.238;2022-09-01T03:39:23;2.27;;;1.77;;
6928;SDS011;3504;52.616;13.238;2022-09-01T03:44:24;2.20;;;1.10;;
6928;SDS011;3504;52.616;13.238;2022-09-01T03:49:25;2.43;;;1.80;;
6928;SDS011;3504;52.616;13.238;2022-09-01T03:54:28;2.27;;;1.80;;
6928;SDS011;3504;52.616;13.238;2022-09-01T03:59:29;3.60;;;1.80;;
6928;SDS011;3504;52.616;13.238;2022-09-01T04:04:30;3.20;;;1.77;;
6928;SDS011;3504;52.616;13.238;2022-09-01T04:09:33;2.60;;;1.80;;
6928;SDS011;3504;52.616;13.238;2022-09-01T04:14:35;2.00;;;1.73;;
6928;SDS011;3504;52.616;13.238;2022-09-01T04:19:37;2.47;;;1.50;;
6928;SDS011;3504;52.616;13.238;2022-09-01T04:24:38;4.73;;;2.07;;
6928;SDS011;3504;52.616;13.238;2022-09-01T04:29:42;1.73;;;1.50;;
6928;SDS011;3504;52.616;13.238;2022-09-01T04:34:45;2.13;;;1.90;;
6928;SDS011;3504;52.616;13.238;2022-09-01T04:39:49;2.73;;;1.90;;
6928;SDS011;3504;52.616;13.238;2022-09-01T04:44:52;2.20;;;1.80;;
6928;SDS011;3504;52.616;13.238;2022-09-01T04:49:57;4.20;;;1.83;;
6928;SDS011;3504;52.616;13.238;2022-09-01T04:54:59;2.10;;;2.00;;
6928;SDS011;3504;52.616;13.238;2022-09-01T05:00:02;2.33;;;1.70;;
6928;SDS011;3504;52.616;13.238;2022-09-01T05:05:06;2.60;;;1.97;;
6928;SDS011;3504;52.616;13.238;2022-09-01T05:10:13;2.17;;;1.93;;
6928;SDS011;3504;52.616;13.238;2022-09-01T05:15:27;3.63;;;2.23;;
6928;SDS011;3504;52.616;13.238;2022-09-01T05:20:30;2.63;;;2.10;;
6928;SDS011;3504;52.616;13.238;2022-09-01T05:25:36;1.90;;;1.60;;
6928;SDS011;3504;52.616;13.238;2022-09-01T05:30:40;4.20;;;2.30;;
6928;SDS011;3504;52.616;13.238;2022-09-01T05:35:51;5.33;;;1.83;;
6928;SDS011;3504;52.616;13.238;2022-09-01T05:40:59;3.77;;;1.93;;
6928;SDS011;3504;52.616;13.238;2022-09-01T05:46:07;2.10;;;1.90;;
6928;SDS011;3504;52.616;13.238;2022-09-01T05:51:10;3.27;;;2.00;;
6928;SDS011;3504;52.616;13.238;2022-09-01T05:56:18;4.00;;;2.10;;
6928;SDS011;3504;52.616;13.238;2022-09-01T06:01:19;3.33;;;2.17;;
6928;SDS011;3504;52.616;13.238;2022-09-01T06:06:26;4.47;;;2.13;;
6928;SDS011;3504;52.616;13.238;2022-09-01T06:11:31;3.77;;;2.00;;
6928;SDS011;3504;52.616;13.238;2022-09-01T06:16:34;2.53;;;1.90;;
6928;SDS011;3504;52.616;13.238;2022-09-01T06:21:37;3.23;;;2.10;;
6928;SDS011;3504;52.616;13.238;2022-09-01T06:26:39;3.73;;;2.20;;
6928;SDS011;3504;52.616;13.238;2022-09-01T06:31:41;2.40;;;1.50;;
6928;SDS011;3504;52.616;13.238;2022-09-01T06:36:46;2.30;;;1.73;;
6928;SDS011;3504;52.616;13.238;2022-09-01T06:41:50;2.83;;;1.50;;
6928;SDS011;3504;52.616;13.238;2022-09-01T06:46:56;1.70;;;1.40;;
6928;SDS011;3504;52.616;13.238;2022-09-01T06:51:59;2.37;;;1.70;;
6928;SDS011;3504;52.616;13.238;2022-09-01T06:57:03;2.90;;;1.80;;
6928;SDS011;3504;52.616;13.238;2022-09-01T07:02:05;1.90;;;1.50;;
6928;SDS011;3504;52.616;13.238;2022-09-01T07:07:27;1.73;;;1.40;;
6928;SDS011;3504;52.616;13.238;2022-09-01T07:13:17;1.77;;;1.60;;
6928;SDS011;3504;52.616;13.238;2022-09-01T07:18:26;3.50;;;1.50;;
6928;SDS011;3504;52.616;13.238;2022-09-01T07:23:27;3.00;;;1.60;;
6928;SDS011;3504;52.616;13.238;2022-09-01T07:28:30;2.37;;;1.30;;
6928;SDS011;3504;52.616;13.238;2022-09-01T07:33:32;2.13;;;1.40;;
6928;SDS011;3504;52.616;13.238;2022-09-01T07:38:36;3.20;;;1.30;;
6928;SDS011;3504;52.616;13.238;2022-09-01T07:43:39;2.07;;;1.30;;
6928;SDS011;3504;52.616;13.238;2022-09-01T07:49:17;3.33;;;1.40;;
6928;SDS011;3504;52.616;13.238;2022-09-01T07:54:19;2.93;;;1.30;;
6928;SDS011;3504;52.616;13.238;2022-09-01T07:59:24;1.93;;;1.10;;
6928;SDS011;3504;52.616;13.238;2022-09-01T08:04:32;5.60;;;1.53;;
6928;SDS011;3504;52.616;13.238;2022-09-01T08:09:35;2.33;;;1.30;;
6928;SDS011;3504;52.616;13.238;2022-09-01T08:14:37;3.60;;;1.30;;
6928;SDS011;3504;52.616;13.238;2022-09-01T08:19:39;3.58;;;1.20;;
6928;SDS011;3504;52.616;13.238;2022-09-01T08:24:45;3.22;;;1.20;;
6928;SDS011;3504;52.616;13.238;2022-09-01T08:29:48;2.50;;;1.05;;
6928;SDS011;3504;52.616;13.238;2022-09-01T08:34:48;1.83;;;1.17;;
6928;SDS011;3504;52.616;13.238;2022-09-01T08:39:50;1.17;;;0.90;;
6928;SDS011;3504;52.616;13.238;2022-09-01T08:45:08;1.13;;;1.02;;
6928;SDS011;3504;52.616;13.238;2022-09-01T08:50:22;3.75;;;1.27;;
6928;SDS011;3504;52.616;13.238;2022-09-01T08:55:43;1.30;;;1.00;;
6928;SDS011;3504;52.616;13.238;2022-09-01T09:01:11;3.38;;;1.30;;
6928;SDS011;3504;52.616;13.238;2022-09-01T09:06:23;1.58;;;0.95;;
6928;SDS011;3504;52.616;13.238;2022-09-01T09:17:11;1.33;;;0.80;;
6928;SDS011;3504;52.616;13.238;2022-09-01T09:22:15;1.63;;;0.85;;
6928;SDS011;3504;52.616;13.238;2022-09-01T09:27:19;4.32;;;1.00;;
6928;SDS011;3504;52.616;13.238;2022-09-01T09:32:24;1.13;;;0.80;;
6928;SDS011;3504;52.616;13.238;2022-09-01T09:37:45;5.00;;;1.48;;
6928;SDS011;3504;52.616;13.238;2022-09-01T09:42:59;0.88;;;0.75;;
6928;SDS011;3504;52.616;13.238;2022-09-01T09:48:07;2.63;;;1.30;;
6928;SDS011;3504;52.616;13.238;2022-09-01T09:53:30;1.83;;;0.80;;
6928;SDS011;3504;52.616;13.238;2022-09-01T09:58:39;1.10;;;0.77;;
6928;SDS011;3504;52.616;13.238;2022-09-01T10:03:47;0.80;;;0.80;;
6928;SDS011;3504;52.616;13.238;2022-09-01T10:08:54;1.95;;;0.77;;
6928;SDS011;3504;52.616;13.238;2022-09-01T10:13:56;2.67;;;0.80;;
6928;SDS011;3504;52.616;13.238;2022-09-01T10:18:58;1.98;;;1.10;;
6928;SDS011;3504;52.616;13.238;2022-09-01T10:24:02;1.75;;;0.75;;
6928;SDS011;3504;52.616;13.238;2022-09-01T10:34:41;1.42;;;0.80;;
6928;SDS011;3504;52.616;13.238;2022-09-01T10:50:34;2.13;;;0.70;;
6928;SDS011;3504;52.616;13.238;2022-09-01T10:55:40;1.45;;;0.80;;
6928;SDS011;3504;52.616;13.238;2022-09-01T11:00:45;1.50;;;0.77;;
6928;SDS011;3504;52.616;13.238;2022-09-01T11:06:03;0.90;;;0.70;;
6928;SDS011;3504;52.616;13.238;2022-09-01T11:11:14;1.67;;;1.00;;
6928;SDS011;3504;52.616;13.238;2022-09-01T11:17:10;1.42;;;0.60;;
6928;SDS011;3504;52.616;13.238;2022-09-01T11:32:56;0.82;;;0.57;;
6928;SDS011;3504;52.616;13.238;2022-09-01T11:38:05;0.80;;;0.70;;
6928;SDS011;3504;52.616;13.238;2022-09-01T11:43:13;1.30;;;0.90;;
6928;SDS011;3504;52.616;13.238;2022-09-01T11:48:17;3.70;;;0.98;;
6928;SDS011;3504;52.616;13.238;2022-09-01T11:53:21;1.15;;;0.85;;
6928;SDS011;3504;52.616;13.238;2022-09-01T11:58:30;5.53;;;1.45;;
6928;SDS011;3504;52.616;13.238;2022-09-01T12:03:37;1.40;;;0.70;;
6928;SDS011;3504;52.616;13.238;2022-09-01T12:08:41;3.35;;;1.10;;
6928;SDS011;3504;52.616;13.238;2022-09-01T12:14:04;1.00;;;0.70;;
6928;SDS011;3504;52.616;13.238;2022-09-01T12:19:20;0.80;;;0.80;;
6928;SDS011;3504;52.616;13.238;2022-09-01T12:24:27;1.10;;;0.50;;
6928;SDS011;3504;52.616;13.238;2022-09-01T12:29:36;3.60;;;1.20;;
6928;SDS011;3504;52.616;13.238;2022-09-01T12:40:02;1.60;;;0.80;;
6928;SDS011;3504;52.616;13.238;2022-09-01T12:45:03;1.27;;;0.70;;
6928;SDS011;3504;52.616;13.238;2022-09-01T12:55:16;1.10;;;0.60;;
6928;SDS011;3504;52.616;13.238;2022-09-01T13:00:24;1.05;;;0.70;;
6928;SDS011;3504;52.616;13.238;2022-09-01T13:05:30;1.88;;;0.70;;
6928;SDS011;3504;52.616;13.238;2022-09-01T13:10:43;0.82;;;0.80;;
6928;SDS011;3504;52.616;13.238;2022-09-01T13:15:51;0.90;;;0.80;;
6928;SDS011;3504;52.616;13.238;2022-09-01T13:20:55;0.68;;;0.60;;
6928;SDS011;3504;52.616;13.238;2022-09-01T13:25:57;1.35;;;0.63;;
6928;SDS011;3504;52.616;13.238;2022-09-01T13:31:00;1.70;;;0.77;;
6928;SDS011;3504;52.616;13.238;2022-09-01T13:36:04;6.32;;;1.10;;
6928;SDS011;3504;52.616;13.238;2022-09-01T13:41:06;1.90;;;0.90;;
6928;SDS011;3504;52.616;13.238;2022-09-01T13:46:07;2.58;;;1.20;;
6928;SDS011;3504;52.616;13.238;2022-09-01T13:51:09;2.35;;;0.80;;
6928;SDS011;3504;52.616;13.238;2022-09-01T13:56:10;11.65;;;3.75;;
6928;SDS011;3504;52.616;13.238;2022-09-01T14:01:12;1.38;;;0.73;;
6928;SDS011;3504;52.616;13.238;2022-09-01T14:06:12;1.90;;;1.00;;
6928;SDS011;3504;52.616;13.238;2022-09-01T14:11:17;7.45;;;2.92;;
6928;SDS011;3504;52.616;13.238;2022-09-01T14:16:18;4.18;;;2.35;;
6928;SDS011;3504;52.616;13.238;2022-09-01T14:21:19;4.10;;;1.27;;
6928;SDS011;3504;52.616;13.238;2022-09-01T14:26:20;8.68;;;1.85;;
6928;SDS011;3504;52.616;13.238;2022-09-01T14:31:22;1.80;;;0.82;;
6928;SDS011;3504;52.616;13.238;2022-09-01T14:36:24;0.70;;;0.70;;
6928;SDS011;3504;52.616;13.238;2022-09-01T14:41:26;0.88;;;0.75;;
6928;SDS011;3504;52.616;13.238;2022-09-01T14:46:27;3.05;;;1.38;;
6928;SDS011;3504;52.616;13.238;2022-09-01T14:51:31;7.70;;;2.17;;
6928;SDS011;3504;52.616;13.238;2022-09-01T14:56:31;2.53;;;0.80;;
6928;SDS011;3504;52.616;13.238;2022-09-01T15:01:33;1.40;;;0.80;;
6928;SDS011;3504;52.616;13.238;2022-09-01T15:06:34;3.50;;;1.20;;
6928;SDS011;3504;52.616;13.238;2022-09-01T15:11:36;1.05;;;0.70;;
6928;SDS011;3504;52.616;13.238;2022-09-01T15:16:36;1.42;;;0.93;;
6928;SDS011;3504;52.616;13.238;2022-09-01T15:21:41;1.00;;;0.70;;
6928;SDS011;3504;52.616;13.238;2022-09-01T15:26:43;1.38;;;0.80;;
6928;SDS011;3504;52.616;13.238;2022-09-01T15:31:47;2.92;;;0.95;;
6928;SDS011;3504;52.616;13.238;2022-09-01T15:36:48;0.90;;;0.80;;
6928;SDS011;3504;52.616;13.238;2022-09-01T15:41:50;0.60;;;0.55;;
6928;SDS011;3504;52.616;13.238;2022-09-01T15:46:50;1.42;;;0.82;;
6928;SDS011;3504;52.616;13.238;2022-09-01T15:51:53;0.80;;;0.80;;
6928;SDS011;3504;52.616;13.238;2022-09-01T15:56:56;1.02;;;0.70;;
6928;SDS011;3504;52.616;13.238;2022-09-01T16:01:57;1.25;;;0.95;;
6928;SDS011;3504;52.616;13.238;2022-09-01T16:06:58;0.98;;;0.77;;
6928;SDS011;3504;52.616;13.238;2022-09-01T16:12:00;2.00;;;0.90;;
6928;SDS011;3504;52.616;13.238;2022-09-01T16:17:02;2.15;;;0.75;;
6928;SDS011;3504;52.616;13.238;2022-09-01T16:22:15;0.90;;;0.80;;
6928;SDS011;3504;52.616;13.238;2022-09-01T16:27:38;0.73;;;0.73;;
6928;SDS011;3504;52.616;13.238;2022-09-01T16:32:47;1.73;;;0.88;;
6928;SDS011;3504;52.616;13.238;2022-09-01T16:43:39;1.23;;;0.90;;
6928;SDS011;3504;52.616;13.238;2022-09-01T16:49:14;1.85;;;0.73;;
6928;SDS011;3504;52.616;13.238;2022-09-01T16:54:46;1.35;;;0.90;;
6928;SDS011;3504;52.616;13.238;2022-09-01T17:00:17;0.88;;;0.75;;
6928;SDS011;3504;52.616;13.238;2022-09-01T17:05:27;2.45;;;1.17;;
6928;SDS011;3504;52.616;13.238;2022-09-01T17:10:46;1.30;;;0.90;;
6928;SDS011;3504;52.616;13.238;2022-09-01T17:16:23;1.20;;;0.90;;
6928;SDS011;3504;52.616;13.238;2022-09-01T17:21:42;1.42;;;0.85;;
6928;SDS011;3504;52.616;13.238;2022-09-01T17:26:56;0.70;;;0.70;;
6928;SDS011;3504;52.616;13.238;2022-09-01T17:43:37;0.98;;;0.93;;
6928;SDS011;3504;52.616;13.238;2022-09-01T17:49:18;1.63;;;0.93;;
6928;SDS011;3504;52.616;13.238;2022-09-01T17:54:37;2.63;;;1.00;;
6928;SDS011;3504;52.616;13.238;2022-09-01T18:05:13;1.70;;;1.00;;
6928;SDS011;3504;52.616;13.238;2022-09-01T18:10:23;2.33;;;1.17;;
6928;SDS011;3504;52.616;13.238;2022-09-01T18:15:39;13.32;;;11.30;;
6928;SDS011;3504;52.616;13.238;2022-09-01T18:20:49;16.65;;;14.02;;
6928;SDS011;3504;52.616;13.238;2022-09-01T18:26:22;11.43;;;7.20;;
6928;SDS011;3504;52.616;13.238;2022-09-01T18:37:13;6.03;;;4.78;;
6928;SDS011;3504;52.616;13.238;2022-09-01T18:42:47;3.65;;;3.00;;
6928;SDS011;3504;52.616;13.238;2022-09-01T19:04:57;1.80;;;1.43;;
6928;SDS011;3504;52.616;13.238;2022-09-01T19:26:10;2.63;;;1.47;;
6928;SDS011;3504;52.616;13.238;2022-09-01T19:31:22;3.13;;;1.37;;
6928;SDS011;3504;52.616;13.238;2022-09-01T19:41:56;3.67;;;1.63;;
6928;SDS011;3504;52.616;13.238;2022-09-01T19:47:13;2.20;;;1.37;;
6928;SDS011;3504;52.616;13.238;2022-09-01T19:52:29;3.83;;;1.97;;
6928;SDS011;3504;52.616;13.238;2022-09-01T20:03:07;1.83;;;1.40;;
6928;SDS011;3504;52.616;13.238;2022-09-01T20:08:15;3.40;;;1.40;;
6928;SDS011;3504;52.616;13.238;2022-09-01T20:13:29;4.40;;;1.30;;
6928;SDS011;3504;52.616;13.238;2022-09-01T20:18:50;2.30;;;2.00;;
6928;SDS011;3504;52.616;13.238;2022-09-01T20:35:18;2.93;;;2.00;;
6928;SDS011;3504;52.616;13.238;2022-09-01T20:40:36;2.47;;;2.07;;
6928;SDS011;3504;52.616;13.238;2022-09-01T20:45:40;2.33;;;1.90;;
6928;SDS011;3504;52.616;13.238;2022-09-01T20:50:54;1.80;;;1.50;;
6928;SDS011;3504;52.616;13.238;2022-09-01T21:01:38;2.53;;;1.77;;
6928;SDS011;3504;52.616;13.238;2022-09-01T21:06:54;2.70;;;1.87;;
6928;SDS011;3504;52.616;13.238;2022-09-01T21:17:43;3.10;;;1.97;;
6928;SDS011;3504;52.616;13.238;2022-09-01T21:23:09;2.57;;;1.83;;
6928;SDS011;3504;52.616;13.238;2022-09-01T21:28:10;2.63;;;1.90;;
6928;SDS011;3504;52.616;13.238;2022-09-01T21:33:24;2.43;;;2.23;;
6928;SDS011;3504;52.616;13.238;2022-09-01T21:38:28;2.17;;;1.70;;
6928;SDS011;3504;52.616;13.238;2022-09-01T21:43:34;2.50;;;1.97;;
6928;SDS011;3504;52.616;13.238;2022-09-01T21:48:40;1.90;;;1.80;;
6928;SDS011;3504;52.616;13.238;2022-09-01T21:53:42;2.50;;;2.17;;
6928;SDS011;3504;52.616;13.238;2022-09-01T21:58:42;2.77;;;2.30;;
6928;SDS011;3504;52.616;13.238;2022-09-01T22:03:44;2.33;;;2.00;;
6928;SDS011;3504;52.616;13.238;2022-09-01T22:08:44;2.97;;;2.20;;
6928;SDS011;3504;52.616;13.238;2022-09-01T22:13:47;2.60;;;2.27;;
6928;SDS011;3504;52.616;13.238;2022-09-01T22:18:48;3.70;;;2.30;;
6928;SDS011;3504;52.616;13.238;2022-09-01T22:23:50;3.37;;;2.30;;
6928;SDS011;3504;52.616;13.238;2022-09-01T22:28:53;4.10;;;2.37;;
6928;SDS011;3504;52.616;13.238;2022-09-01T22:33:56;2.63;;;2.30;;
6928;SDS011;3504;52.616;13.238;2022-09-01T22:38:58;2.33;;;2.13;;
6928;SDS011;3504;52.616;13.238;2022-09-01T22:44:00;4.23;;;2.30;;
6928;SDS011;3504;52.616;13.238;2022-09-01T22:49:02;4.37;;;2.30;;
6928;SDS011;3504;52.616;13.238;2022-09-01T22:54:05;2.23;;;1.87;;
6928;SDS011;3504;52.616;13.238;2022-09-01T22:59:08;4.03;;;2.33;;
6928;SDS011;3504;52.616;13.238;2022-09-01T23:04:14;3.03;;;2.17;;
6928;SDS011;3504;52.616;13.238;2022-09-01T23:09:16;2.30;;;2.10;;
6928;SDS011;3504;52.616;13.238;2022-09-01T23:14:18;2.37;;;2.17;;
6928;SDS011;3504;52.616;13.238;2022-09-01T23:19:19;2.37;;;1.83;;
6928;SDS011;3504;52.616;13.238;2022-09-01T23:24:21;2.90;;;2.00;;
6928;SDS011;3504;52.616;13.238;2022-09-01T23:29:21;3.23;;;2.13;;
6928;SDS011;3504;52.616;13.238;2022-09-01T23:34:25;2.30;;;2.10;;
6928;SDS011;3504;52.616;13.238;2022-09-01T23:39:25;2.10;;;1.83;;
6928;SDS011;3504;52.616;13.238;2022-09-01T23:44:27;2.30;;;2.10;;
6928;SDS011;3504;52.616;13.238;2022-09-01T23:49:29;3.73;;;2.07;;
6928;SDS011;3504;52.616;13.238;2022-09-01T23:54:31;2.80;;;2.20;;
6928;SDS011;3504;52.616;13.238;2022-09-01T23:59:31;2.00;;;1.90;;
